createdAt,value
2019-01-18T00:00:19.604Z,0
2019-01-18T00:01:29.719Z,0
2019-01-18T00:02:39.830Z,0
2019-01-18T00:03:49.931Z,0
2019-01-18T00:05:00.140Z,0
2019-01-18T00:06:10.313Z,0
2019-01-18T00:07:20.432Z,0
2019-01-18T00:08:30.559Z,0
2019-01-18T00:09:40.655Z,0
2019-01-18T00:10:50.804Z,0
2019-01-18T00:12:00.897Z,0
2019-01-18T00:13:10.988Z,0
2019-01-18T00:14:21.117Z,0
2019-01-18T00:15:30.859Z,0
2019-01-18T00:16:41.007Z,0
2019-01-18T00:17:51.112Z,0
2019-01-18T00:19:01.224Z,0
2019-01-18T00:20:11.337Z,0
2019-01-18T00:21:21.244Z,0
2019-01-18T00:22:31.344Z,0
2019-01-18T00:23:41.442Z,0
2019-01-18T00:24:51.540Z,0
2019-01-18T00:26:01.645Z,0
2019-01-18T00:27:11.789Z,0
2019-01-18T00:28:21.910Z,0
2019-01-18T00:29:36.933Z,0
2019-01-18T00:30:47.050Z,0
2019-01-18T00:31:57.167Z,0
2019-01-18T00:33:07.306Z,0
2019-01-18T00:34:17.407Z,0
2019-01-18T00:35:27.514Z,0
2019-01-18T00:36:37.648Z,0
2019-01-18T00:37:47.749Z,0
2019-01-18T00:38:58.828Z,0
2019-01-18T00:40:08.933Z,0
2019-01-18T00:41:19.051Z,0
2019-01-18T00:42:29.159Z,0
2019-01-18T00:43:39.266Z,0
2019-01-18T00:44:49.479Z,0
2019-01-18T00:45:59.590Z,0
2019-01-18T00:47:09.704Z,0
2019-01-18T00:48:19.814Z,0
2019-01-18T00:49:29.940Z,0
2019-01-18T00:50:40.037Z,0
2019-01-18T00:51:49.886Z,0
2019-01-18T00:53:00.017Z,0
2019-01-18T00:54:10.188Z,0
2019-01-18T00:55:20.285Z,0
2019-01-18T00:56:30.392Z,0
2019-01-18T00:57:40.492Z,0
2019-01-18T00:58:50.632Z,0
2019-01-18T01:00:00.771Z,0
2019-01-18T01:01:10.868Z,0
2019-01-18T01:02:20.984Z,0
2019-01-18T01:03:31.101Z,0
2019-01-18T01:04:41.201Z,0
2019-01-18T01:05:51.310Z,0
2019-01-18T01:07:01.429Z,0
2019-01-18T01:08:11.543Z,0
2019-01-18T01:09:21.646Z,0
2019-01-18T01:10:31.509Z,0
2019-01-18T01:11:41.366Z,0
2019-01-18T01:12:51.463Z,0
2019-01-18T01:14:01.579Z,0
2019-01-18T01:15:11.666Z,0
2019-01-18T01:16:21.527Z,0
2019-01-18T01:17:32.605Z,0
2019-01-18T01:18:42.711Z,0
2019-01-18T01:19:52.826Z,0
2019-01-18T01:21:02.940Z,0
2019-01-18T01:22:13.063Z,0
2019-01-18T01:23:23.157Z,0
2019-01-18T01:24:33.253Z,0
2019-01-18T01:25:43.354Z,0
2019-01-18T01:26:53.484Z,0
2019-01-18T01:28:03.577Z,0
2019-01-18T01:29:13.431Z,0
2019-01-18T01:30:23.550Z,0
2019-01-18T01:31:33.659Z,0
2019-01-18T01:32:43.751Z,0
2019-01-18T01:33:53.959Z,0
2019-01-18T01:35:04.351Z,0
2019-01-18T01:36:14.460Z,0
2019-01-18T01:37:24.590Z,0
2019-01-18T01:38:34.691Z,0
2019-01-18T01:39:44.792Z,0
2019-01-18T01:40:54.642Z,0
2019-01-18T01:42:04.747Z,0
2019-01-18T01:43:14.844Z,0
2019-01-18T01:44:24.963Z,0
2019-01-18T01:45:35.052Z,0
2019-01-18T01:46:45.147Z,0
2019-01-18T01:47:55.273Z,0
2019-01-18T01:49:05.375Z,0
2019-01-18T01:50:15.472Z,0
2019-01-18T01:51:25.578Z,0
2019-01-18T01:52:35.669Z,0
2019-01-18T01:53:45.766Z,0
2019-01-18T01:54:55.998Z,0
2019-01-18T01:56:06.200Z,0
2019-01-18T01:57:16.302Z,0
2019-01-18T01:58:26.408Z,0
2019-01-18T01:59:36.517Z,0
2019-01-18T02:00:46.612Z,0
2019-01-18T02:01:56.456Z,0
2019-01-18T02:03:06.750Z,0
2019-01-18T02:04:16.855Z,0
2019-01-18T02:05:26.971Z,0
2019-01-18T02:06:37.092Z,0
2019-01-18T02:07:46.966Z,0
2019-01-18T02:08:57.073Z,0
2019-01-18T02:10:07.166Z,0
2019-01-18T02:11:17.263Z,0
2019-01-18T02:12:28.359Z,0
2019-01-18T02:13:38.454Z,0
2019-01-18T02:14:48.552Z,0
2019-01-18T02:15:58.646Z,0
2019-01-18T02:17:08.781Z,0
2019-01-18T02:18:18.880Z,0
2019-01-18T02:19:28.990Z,0
2019-01-18T02:20:39.100Z,0
2019-01-18T02:21:49.206Z,0
2019-01-18T02:22:59.313Z,0
2019-01-18T02:24:09.423Z,0
2019-01-18T02:25:19.532Z,0
2019-01-18T02:26:29.395Z,0
2019-01-18T02:27:39.485Z,0
2019-01-18T02:28:49.594Z,0
2019-01-18T02:30:04.107Z,0
2019-01-18T02:31:14.206Z,0
2019-01-18T02:32:24.311Z,0
2019-01-18T02:33:34.416Z,0
2019-01-18T02:34:44.516Z,0
2019-01-18T02:35:54.632Z,0
2019-01-18T02:37:04.755Z,0
2019-01-18T02:38:14.856Z,0
2019-01-18T02:39:24.961Z,0
2019-01-18T02:40:35.062Z,0
2019-01-18T02:41:45.184Z,0
2019-01-18T02:42:55.291Z,0
2019-01-18T02:44:05.399Z,0
2019-01-18T02:45:15.517Z,0
2019-01-18T02:46:25.682Z,0
2019-01-18T02:47:35.790Z,0
2019-01-18T02:48:45.893Z,0
2019-01-18T02:49:55.759Z,0
2019-01-18T02:51:05.872Z,0
2019-01-18T02:52:15.967Z,0
2019-01-18T02:53:26.076Z,0
2019-01-18T02:54:36.183Z,0
2019-01-18T02:55:46.275Z,0
2019-01-18T02:56:56.378Z,0
2019-01-18T02:58:06.497Z,0
2019-01-18T02:59:16.617Z,0
2019-01-18T03:00:26.731Z,0
2019-01-18T03:01:36.844Z,0
2019-01-18T03:02:46.954Z,0
2019-01-18T03:03:57.085Z,0
2019-01-18T03:05:07.213Z,0
2019-01-18T03:06:17.328Z,0
2019-01-18T03:07:27.430Z,0
2019-01-18T03:08:37.533Z,0
2019-01-18T03:09:47.650Z,0
2019-01-18T03:10:57.756Z,0
2019-01-18T03:12:07.855Z,0
2019-01-18T03:13:18.002Z,0
2019-01-18T03:14:28.569Z,0
2019-01-18T03:15:38.676Z,0
2019-01-18T03:16:48.779Z,0
2019-01-18T03:17:58.874Z,0
2019-01-18T03:19:08.985Z,0
2019-01-18T03:20:19.080Z,0
2019-01-18T03:21:29.199Z,0
2019-01-18T03:22:39.312Z,0
2019-01-18T03:23:49.427Z,0
2019-01-18T03:24:59.530Z,0
2019-01-18T03:26:09.652Z,0
2019-01-18T03:27:18.882Z,0
2019-01-18T03:28:28.982Z,0
2019-01-18T03:29:39.109Z,0
2019-01-18T03:30:49.560Z,0
2019-01-18T03:31:59.722Z,0
2019-01-18T03:33:09.849Z,0
2019-01-18T03:34:20.093Z,0
2019-01-18T03:35:29.955Z,0
2019-01-18T03:36:39.792Z,0
2019-01-18T03:37:49.891Z,0
2019-01-18T03:39:00.003Z,0
2019-01-18T03:40:10.128Z,0
2019-01-18T03:41:20.217Z,0
2019-01-18T03:42:30.324Z,0
2019-01-18T03:43:40.410Z,0
2019-01-18T03:44:50.260Z,0
2019-01-18T03:46:00.352Z,0
2019-01-18T03:47:10.453Z,0
2019-01-18T03:48:20.541Z,0
2019-01-18T03:49:30.644Z,0
2019-01-18T03:50:40.736Z,0
2019-01-18T03:51:50.861Z,0
2019-01-18T03:53:00.955Z,0
2019-01-18T03:54:11.057Z,0
2019-01-18T03:55:21.162Z,0
2019-01-18T03:56:31.258Z,0
2019-01-18T03:57:41.366Z,0
2019-01-18T03:58:51.476Z,0
2019-01-18T04:00:01.578Z,0
2019-01-18T04:01:11.682Z,0
2019-01-18T04:02:21.778Z,0
2019-01-18T04:03:31.902Z,0
2019-01-18T04:04:42.021Z,0
2019-01-18T04:05:52.166Z,0
2019-01-18T04:07:02.275Z,0
2019-01-18T04:08:12.371Z,0
2019-01-18T04:09:22.473Z,0
2019-01-18T04:10:32.564Z,0
2019-01-18T04:11:42.682Z,0
2019-01-18T04:12:52.793Z,0
2019-01-18T04:14:02.908Z,0
2019-01-18T04:15:13.046Z,0
2019-01-18T04:16:23.159Z,0
2019-01-18T04:17:33.302Z,0
2019-01-18T04:18:43.406Z,0
2019-01-18T04:19:53.509Z,0
2019-01-18T04:21:03.616Z,0
2019-01-18T04:22:13.712Z,0
2019-01-18T04:23:23.826Z,0
2019-01-18T04:24:33.946Z,0
2019-01-18T04:25:43.791Z,0
2019-01-18T04:26:53.892Z,0
2019-01-18T04:28:03.999Z,0
2019-01-18T04:29:14.098Z,0
2019-01-18T04:30:24.218Z,0
2019-01-18T04:31:41.078Z,0
2019-01-18T04:32:51.192Z,0
2019-01-18T04:34:01.886Z,0
2019-01-18T04:35:12.033Z,0
2019-01-18T04:36:22.160Z,0
2019-01-18T04:37:32.260Z,0
2019-01-18T04:38:42.363Z,0
2019-01-18T04:39:52.957Z,0
2019-01-18T04:41:03.048Z,0
2019-01-18T04:42:13.162Z,0
2019-01-18T04:43:23.103Z,0
2019-01-18T04:44:33.195Z,0
2019-01-18T04:45:43.313Z,0
2019-01-18T04:46:53.426Z,0
2019-01-18T04:48:04.524Z,0
2019-01-18T04:49:14.675Z,0
2019-01-18T04:50:24.781Z,0
2019-01-18T04:51:34.895Z,0
2019-01-18T04:52:45.007Z,0
2019-01-18T04:53:54.863Z,0
2019-01-18T04:55:04.735Z,0
2019-01-18T04:56:14.867Z,0
2019-01-18T04:57:25.028Z,0
2019-01-18T04:58:35.126Z,0
2019-01-18T04:59:45.251Z,0
2019-01-18T05:00:55.354Z,0
2019-01-18T05:02:05.467Z,0
2019-01-18T05:03:15.572Z,0
2019-01-18T05:04:25.672Z,0
2019-01-18T05:05:35.787Z,0
2019-01-18T05:06:45.901Z,0
2019-01-18T05:07:56.006Z,0
2019-01-18T05:09:06.149Z,0
2019-01-18T05:10:16.009Z,0
2019-01-18T05:11:26.154Z,0
2019-01-18T05:12:36.267Z,0
2019-01-18T05:13:46.373Z,0
2019-01-18T05:14:56.498Z,0
2019-01-18T05:16:06.619Z,0
2019-01-18T05:17:16.740Z,0
2019-01-18T05:18:26.880Z,0
2019-01-18T05:19:36.970Z,0
2019-01-18T05:20:47.068Z,0
2019-01-18T05:21:57.186Z,0
2019-01-18T05:23:07.296Z,0
2019-01-18T05:24:17.391Z,0
2019-01-18T05:25:27.507Z,0
2019-01-18T05:26:37.609Z,0
2019-01-18T05:27:47.709Z,0
2019-01-18T05:28:57.810Z,0
2019-01-18T05:30:07.968Z,0
2019-01-18T05:31:18.073Z,0
2019-01-18T05:32:28.829Z,0
2019-01-18T05:33:38.969Z,0
2019-01-18T05:34:49.085Z,0
2019-01-18T05:35:59.205Z,0
2019-01-18T05:37:09.325Z,0
2019-01-18T05:38:19.439Z,0
2019-01-18T05:39:29.547Z,0
2019-01-18T05:40:39.664Z,0
2019-01-18T05:41:49.778Z,0
2019-01-18T05:42:59.891Z,0
2019-01-18T05:44:10.025Z,0
2019-01-18T05:45:20.137Z,0
2019-01-18T05:46:30.260Z,0
2019-01-18T05:47:40.373Z,0
2019-01-18T05:48:50.245Z,0
2019-01-18T05:50:00.362Z,0
2019-01-18T05:51:10.489Z,0
2019-01-18T05:52:20.590Z,0
2019-01-18T05:53:30.714Z,0
2019-01-18T05:54:40.822Z,0
2019-01-18T05:55:50.675Z,0
2019-01-18T05:57:00.435Z,0
2019-01-18T05:58:10.574Z,0
2019-01-18T05:59:20.721Z,0
2019-01-18T06:00:30.976Z,0
2019-01-18T06:01:41.088Z,0
2019-01-18T06:02:51.198Z,0
2019-01-18T06:04:01.329Z,0
2019-01-18T06:05:11.191Z,0
2019-01-18T06:06:21.312Z,0
2019-01-18T06:07:31.413Z,0
2019-01-18T06:08:41.553Z,0
2019-01-18T06:09:51.675Z,0
2019-01-18T06:11:01.782Z,0
2019-01-18T06:12:11.924Z,0
2019-01-18T06:13:22.040Z,0
2019-01-18T06:14:32.188Z,0
2019-01-18T06:15:43.103Z,0
2019-01-18T06:16:53.215Z,0
2019-01-18T06:18:03.352Z,0
2019-01-18T06:19:13.465Z,0
2019-01-18T06:20:23.468Z,0
2019-01-18T06:21:33.575Z,0
2019-01-18T06:22:43.690Z,0
2019-01-18T06:23:53.824Z,0
2019-01-18T06:25:03.972Z,0
2019-01-18T06:26:14.107Z,0
2019-01-18T06:27:25.604Z,0
2019-01-18T06:28:35.729Z,0
2019-01-18T06:29:45.850Z,0
2019-01-18T06:31:01.552Z,0
2019-01-18T06:32:11.924Z,0
2019-01-18T06:33:22.041Z,0
2019-01-18T06:34:31.921Z,0
2019-01-18T06:35:42.049Z,0
2019-01-18T06:36:52.154Z,4
2019-01-18T06:38:02.277Z,0
2019-01-18T06:39:12.392Z,0
2019-01-18T06:40:22.514Z,4
2019-01-18T06:41:32.634Z,4
2019-01-18T06:42:42.736Z,4
2019-01-18T06:43:52.904Z,4
2019-01-18T06:45:03.093Z,8
2019-01-18T06:46:13.198Z,8
2019-01-18T06:47:23.308Z,8
2019-01-18T06:48:33.411Z,8
2019-01-18T06:49:43.511Z,12
2019-01-18T06:50:54.248Z,16
2019-01-18T06:52:04.379Z,16
2019-01-18T06:53:14.283Z,24
2019-01-18T06:54:24.405Z,28
2019-01-18T06:55:34.515Z,28
2019-01-18T06:56:44.617Z,36
2019-01-18T06:57:54.245Z,44
2019-01-18T06:59:04.360Z,48
2019-01-18T07:00:14.211Z,60
2019-01-18T07:01:24.323Z,64
2019-01-18T07:02:34.170Z,80
2019-01-18T07:03:44.291Z,88
2019-01-18T07:04:54.151Z,96
2019-01-18T07:06:04.497Z,108
2019-01-18T07:07:14.594Z,124
2019-01-18T07:08:25.778Z,140
2019-01-18T07:09:35.909Z,152
2019-01-18T07:10:45.997Z,168
2019-01-18T07:11:56.116Z,188
2019-01-18T07:13:06.216Z,208
2019-01-18T07:14:16.332Z,228
2019-01-18T07:15:26.443Z,244
2019-01-18T07:16:36.551Z,264
2019-01-18T07:17:46.671Z,288
2019-01-18T07:18:56.783Z,316
2019-01-18T07:20:06.666Z,336
2019-01-18T07:21:16.768Z,364
2019-01-18T07:22:26.875Z,392
2019-01-18T07:23:36.996Z,416
2019-01-18T07:24:47.092Z,444
2019-01-18T07:25:56.938Z,472
2019-01-18T07:27:07.045Z,500
2019-01-18T07:28:17.208Z,528
2019-01-18T07:29:27.314Z,556
2019-01-18T07:30:37.425Z,588
2019-01-18T07:31:47.538Z,616
2019-01-18T07:32:57.652Z,648
2019-01-18T07:34:07.779Z,680
2019-01-18T07:35:17.880Z,712
2019-01-18T07:36:27.986Z,740
2019-01-18T07:37:38.086Z,772
2019-01-18T07:38:48.206Z,804
2019-01-18T07:39:58.333Z,832
2019-01-18T07:41:08.488Z,864
2019-01-18T07:42:18.328Z,900
2019-01-18T07:43:28.442Z,928
2019-01-18T07:44:38.545Z,960
2019-01-18T07:45:48.663Z,992
2019-01-18T07:46:58.772Z,1020
2019-01-18T07:48:08.874Z,1048
2019-01-18T07:49:19.955Z,1080
2019-01-18T07:50:30.084Z,1116
2019-01-18T07:51:39.950Z,1152
2019-01-18T07:52:50.044Z,1188
2019-01-18T07:54:00.210Z,1228
2019-01-18T07:55:10.062Z,1268
2019-01-18T07:56:20.161Z,1304
2019-01-18T07:57:30.285Z,1340
2019-01-18T07:58:40.412Z,1376
2019-01-18T07:59:50.575Z,1416
2019-01-18T08:01:00.709Z,1456
2019-01-18T08:02:10.840Z,1496
2019-01-18T08:03:20.701Z,1536
2019-01-18T08:04:30.821Z,1580
2019-01-18T08:05:40.982Z,1620
2019-01-18T08:06:51.147Z,1668
2019-01-18T08:08:01.271Z,1720
2019-01-18T08:09:12.363Z,1780
2019-01-18T08:10:22.502Z,1840
2019-01-18T08:11:32.616Z,1888
2019-01-18T08:12:42.707Z,1924
2019-01-18T08:13:52.817Z,1944
2019-01-18T08:15:02.993Z,1960
2019-01-18T08:16:13.141Z,1988
2019-01-18T08:17:22.985Z,2028
2019-01-18T08:18:33.122Z,2068
2019-01-18T08:19:43.239Z,2104
2019-01-18T08:20:53.372Z,2100
2019-01-18T08:22:03.504Z,2068
2019-01-18T08:23:13.665Z,2092
2019-01-18T08:24:23.542Z,2164
2019-01-18T08:25:33.648Z,2252
2019-01-18T08:26:43.771Z,2352
2019-01-18T08:27:53.642Z,2444
2019-01-18T08:29:03.760Z,2536
2019-01-18T08:30:13.611Z,2624
2019-01-18T08:31:28.779Z,2740
2019-01-18T08:32:39.121Z,2880
2019-01-18T08:33:49.264Z,3012
2019-01-18T08:34:59.368Z,3096
2019-01-18T08:36:09.539Z,3176
2019-01-18T08:37:19.409Z,3260
2019-01-18T08:38:29.288Z,3364
2019-01-18T08:39:39.403Z,3592
2019-01-18T08:40:49.518Z,3948
2019-01-18T08:41:59.357Z,4232
2019-01-18T08:43:09.465Z,3820
2019-01-18T08:44:19.560Z,4508
2019-01-18T08:45:29.681Z,4664
2019-01-18T08:46:39.793Z,4836
2019-01-18T08:47:49.905Z,4988
2019-01-18T08:49:01.231Z,5196
2019-01-18T08:50:11.395Z,5240
2019-01-18T08:51:21.495Z,5304
2019-01-18T08:52:31.593Z,5444
2019-01-18T08:53:41.701Z,4900
2019-01-18T08:54:51.453Z,4908
2019-01-18T08:56:01.566Z,6216
2019-01-18T08:57:11.657Z,6044
2019-01-18T08:58:21.792Z,5716
2019-01-18T08:59:31.928Z,5108
2019-01-18T09:00:42.036Z,5552
2019-01-18T09:01:52.191Z,5944
2019-01-18T09:03:02.030Z,6072
2019-01-18T09:04:12.143Z,6192
2019-01-18T09:05:22.250Z,6304
2019-01-18T09:06:32.374Z,6404
2019-01-18T09:07:42.217Z,6512
2019-01-18T09:08:52.365Z,6584
2019-01-18T09:10:02.530Z,6684
2019-01-18T09:11:12.671Z,6800
2019-01-18T09:12:22.779Z,6912
2019-01-18T09:13:32.894Z,7052
2019-01-18T09:14:42.998Z,7172
2019-01-18T09:15:53.107Z,7260
2019-01-18T09:17:03.385Z,7364
2019-01-18T09:18:13.518Z,7436
2019-01-18T09:19:23.636Z,7532
2019-01-18T09:20:33.748Z,7584
2019-01-18T09:21:43.859Z,7376
2019-01-18T09:22:53.982Z,6908
2019-01-18T09:24:04.094Z,6252
2019-01-18T09:25:14.206Z,5896
2019-01-18T09:26:24.323Z,5676
2019-01-18T09:27:34.421Z,5504
2019-01-18T09:28:44.547Z,5408
2019-01-18T09:29:54.667Z,5384
2019-01-18T09:31:04.806Z,5440
2019-01-18T09:32:14.924Z,5620
2019-01-18T09:33:24.784Z,6000
2019-01-18T09:34:34.910Z,6600
2019-01-18T09:35:45.025Z,7164
2019-01-18T09:36:55.141Z,7308
2019-01-18T09:38:05.293Z,7324
2019-01-18T09:39:15.410Z,7296
2019-01-18T09:40:25.503Z,7200
2019-01-18T09:41:35.614Z,7028
2019-01-18T09:42:45.732Z,6584
2019-01-18T09:43:55.837Z,5764
2019-01-18T09:45:05.989Z,5336
2019-01-18T09:46:16.127Z,5244
2019-01-18T09:47:26.296Z,5356
2019-01-18T09:48:36.430Z,5552
2019-01-18T09:49:47.692Z,5780
2019-01-18T09:50:57.790Z,6072
2019-01-18T09:52:07.912Z,6476
2019-01-18T09:53:18.031Z,6960
2019-01-18T09:54:28.141Z,7600
2019-01-18T09:55:38.942Z,8376
2019-01-18T09:56:49.062Z,9340
2019-01-18T09:57:59.173Z,10420
2019-01-18T09:59:09.305Z,12652
2019-01-18T10:00:19.402Z,15712
2019-01-18T10:01:29.520Z,18816
2019-01-18T10:02:39.397Z,21888
2019-01-18T10:03:49.526Z,24384
2019-01-18T10:04:59.638Z,26016
2019-01-18T10:06:09.776Z,26336
2019-01-18T10:07:19.923Z,26432
2019-01-18T10:08:30.041Z,26592
2019-01-18T10:09:40.181Z,26752
2019-01-18T10:10:50.324Z,26880
2019-01-18T10:12:01.041Z,26944
2019-01-18T10:14:26.925Z,27232
2019-01-18T10:15:39.099Z,27328
2019-01-18T10:16:49.214Z,27680
2019-01-18T10:18:05.388Z,27776
2019-01-18T10:19:15.261Z,27744
2019-01-18T10:20:25.390Z,27840
2019-01-18T10:21:35.511Z,27840
2019-01-18T10:22:45.634Z,28256
2019-01-18T10:23:55.751Z,28192
2019-01-18T10:25:05.872Z,28160
2019-01-18T10:26:15.985Z,28288
2019-01-18T10:27:30.590Z,28640
2019-01-18T10:28:40.718Z,28288
2019-01-18T10:29:50.852Z,28928
2019-01-18T10:31:00.717Z,28768
2019-01-18T10:32:10.850Z,28992
2019-01-18T10:33:21.182Z,28992
2019-01-18T10:34:31.307Z,28736
2019-01-18T10:35:41.433Z,28928
2019-01-18T10:36:51.558Z,28928
2019-01-18T10:38:02.727Z,28800
2019-01-18T10:39:12.858Z,29376
2019-01-18T10:40:22.983Z,29376
2019-01-18T10:41:33.321Z,29440
2019-01-18T10:42:43.431Z,29664
2019-01-18T10:43:53.560Z,29376
2019-01-18T10:45:03.811Z,29376
2019-01-18T10:46:13.933Z,29248
2019-01-18T10:47:24.054Z,29536
2019-01-18T10:49:47.933Z,29824
2019-01-18T10:50:58.058Z,29728
2019-01-18T10:52:08.186Z,29632
2019-01-18T10:53:18.311Z,29792
2019-01-18T10:54:28.674Z,29664
2019-01-18T10:55:38.782Z,29664
2019-01-18T10:56:48.920Z,29632
2019-01-18T10:58:00.281Z,29792
2019-01-18T10:59:10.405Z,30016
2019-01-18T11:00:20.510Z,30048
2019-01-18T11:01:30.622Z,30400
2019-01-18T11:02:41.822Z,29952
2019-01-18T11:03:51.952Z,30208
2019-01-18T11:06:16.624Z,30432
2019-01-18T11:07:26.754Z,30688
2019-01-18T11:08:36.627Z,30592
2019-01-18T11:09:46.747Z,30656
2019-01-18T11:10:56.673Z,30912
2019-01-18T11:12:06.780Z,30976
2019-01-18T11:13:16.918Z,31232
2019-01-18T11:14:27.039Z,31072
2019-01-18T11:15:40.901Z,30560
2019-01-18T11:16:51.022Z,30880
2019-01-18T11:18:01.171Z,31104
2019-01-18T11:19:11.301Z,30784
2019-01-18T11:20:21.239Z,31168
2019-01-18T11:21:31.385Z,31488
2019-01-18T11:22:41.564Z,30720
2019-01-18T11:23:51.693Z,31296
2019-01-18T11:25:01.835Z,30944
2019-01-18T11:26:11.947Z,31232
2019-01-18T11:27:22.079Z,31360
2019-01-18T11:28:32.213Z,31200
2019-01-18T11:29:42.343Z,31520
2019-01-18T11:30:52.452Z,31264
2019-01-18T11:32:02.569Z,31840
2019-01-18T11:33:12.710Z,31904
2019-01-18T11:34:22.821Z,30688
2019-01-18T11:35:32.997Z,31456
2019-01-18T11:36:43.128Z,31232
2019-01-18T11:37:53.253Z,30880
2019-01-18T11:39:04.346Z,31232
2019-01-18T11:40:14.202Z,30816
2019-01-18T11:41:24.323Z,30784
2019-01-18T11:42:34.099Z,30944
2019-01-18T11:43:44.220Z,31168
2019-01-18T11:44:54.362Z,30784
2019-01-18T11:46:04.500Z,30912
2019-01-18T11:47:14.630Z,30976
2019-01-18T11:48:24.764Z,30752
2019-01-18T11:49:34.638Z,30688
2019-01-18T11:50:44.756Z,30496
2019-01-18T11:51:54.880Z,30976
2019-01-18T11:53:05.007Z,30400
2019-01-18T11:54:15.150Z,30656
2019-01-18T11:55:25.281Z,30528
2019-01-18T11:56:35.421Z,30304
2019-01-18T11:57:45.547Z,29856
2019-01-18T11:58:55.159Z,28064
2019-01-18T12:00:05.069Z,26848
2019-01-18T12:01:15.220Z,28480
2019-01-18T12:02:29.427Z,28288
2019-01-18T12:03:39.569Z,27136
2019-01-18T12:04:49.722Z,22336
2019-01-18T12:05:59.855Z,25824
2019-01-18T12:07:09.994Z,28704
2019-01-18T12:08:19.907Z,28736
2019-01-18T12:09:30.061Z,28480
2019-01-18T12:10:40.212Z,28864
2019-01-18T12:11:50.323Z,28544
2019-01-18T12:13:00.475Z,29344
2019-01-18T12:14:10.624Z,29408
2019-01-18T12:15:20.750Z,29408
2019-01-18T12:16:30.869Z,29632
2019-01-18T12:17:40.995Z,29088
2019-01-18T12:18:51.139Z,28768
2019-01-18T12:20:01.282Z,29184
2019-01-18T12:21:11.149Z,28640
2019-01-18T12:22:21.283Z,28448
2019-01-18T12:23:31.058Z,28192
2019-01-18T12:24:41.201Z,28064
2019-01-18T12:25:51.370Z,28064
2019-01-18T12:27:01.532Z,27744
2019-01-18T12:28:11.666Z,27904
2019-01-18T12:29:23.009Z,26592
2019-01-18T12:30:33.459Z,24288
2019-01-18T12:31:43.612Z,21792
2019-01-18T12:32:53.781Z,18624
2019-01-18T12:34:03.915Z,15936
2019-01-18T12:35:14.042Z,13120
2019-01-18T12:36:24.182Z,10676
2019-01-18T12:37:34.314Z,9392
2019-01-18T12:38:44.177Z,8816
2019-01-18T12:39:54.316Z,8276
2019-01-18T12:41:04.457Z,7796
2019-01-18T12:42:14.602Z,7412
2019-01-18T12:43:24.746Z,7096
2019-01-18T12:44:34.882Z,6816
2019-01-18T12:45:46.420Z,6576
2019-01-18T12:46:56.545Z,6200
2019-01-18T12:48:08.002Z,5520
2019-01-18T12:49:17.756Z,5040
2019-01-18T12:50:27.888Z,4844
2019-01-18T12:51:37.743Z,4432
2019-01-18T12:52:47.865Z,4248
2019-01-18T12:53:57.998Z,4212
2019-01-18T12:55:07.772Z,4196
2019-01-18T12:56:17.909Z,4300
2019-01-18T12:57:27.782Z,4408
2019-01-18T12:58:37.892Z,4440
2019-01-18T12:59:48.028Z,4480
2019-01-18T13:00:58.145Z,4508
2019-01-18T13:02:08.276Z,4460
2019-01-18T13:03:18.408Z,4392
2019-01-18T13:04:28.516Z,4296
2019-01-18T13:05:38.669Z,4232
2019-01-18T13:06:48.804Z,4168
2019-01-18T13:07:58.924Z,4148
2019-01-18T13:09:09.033Z,4120
2019-01-18T13:10:19.784Z,4084
2019-01-18T13:11:29.910Z,4040
2019-01-18T13:12:40.050Z,3984
2019-01-18T13:13:50.205Z,3944
2019-01-18T13:15:04.576Z,3900
2019-01-18T13:16:14.739Z,3872
2019-01-18T13:17:24.871Z,3836
2019-01-18T13:18:35.024Z,3772
2019-01-18T13:19:45.176Z,3672
2019-01-18T13:20:55.332Z,3576
2019-01-18T13:22:05.474Z,3480
2019-01-18T13:23:15.593Z,3344
2019-01-18T13:24:25.741Z,3296
2019-01-18T13:25:35.851Z,3280
2019-01-18T13:26:45.701Z,3244
2019-01-18T13:27:59.714Z,3196
2019-01-18T13:29:10.120Z,3160
2019-01-18T13:30:20.251Z,3120
2019-01-18T13:31:30.380Z,3068
2019-01-18T13:32:46.543Z,3028
2019-01-18T13:33:56.669Z,3000
2019-01-18T13:35:10.830Z,2976
2019-01-18T13:36:20.983Z,2932
2019-01-18T13:37:32.097Z,2888
2019-01-18T13:38:42.243Z,2868
2019-01-18T13:39:52.385Z,2852
2019-01-18T13:41:02.509Z,2828
2019-01-18T13:42:12.646Z,2796
2019-01-18T13:43:22.771Z,2772
2019-01-18T13:44:32.970Z,2756
2019-01-18T13:45:43.103Z,2732
2019-01-18T13:46:53.250Z,2704
2019-01-18T13:48:03.043Z,2676
2019-01-18T13:49:13.196Z,2656
2019-01-18T13:50:23.318Z,2636
2019-01-18T13:51:33.453Z,2616
2019-01-18T13:52:43.336Z,2592
2019-01-18T13:53:53.453Z,2568
2019-01-18T13:55:03.587Z,2544
2019-01-18T13:56:13.741Z,2520
2019-01-18T13:57:23.978Z,2500
2019-01-18T13:58:34.111Z,2480
2019-01-18T13:59:44.239Z,2456
2019-01-18T14:00:54.372Z,2428
2019-01-18T14:02:04.505Z,2412
2019-01-18T14:03:14.655Z,2392
2019-01-18T14:04:24.860Z,2368
2019-01-18T14:05:34.744Z,2336
2019-01-18T14:06:44.903Z,2300
2019-01-18T14:07:58.343Z,2264
2019-01-18T14:09:08.472Z,2240
2019-01-18T14:10:18.347Z,2184
2019-01-18T14:11:28.471Z,2168
2019-01-18T14:12:38.622Z,2136
2019-01-18T14:13:48.844Z,2112
2019-01-18T14:14:58.964Z,2112
2019-01-18T14:16:09.101Z,2112
2019-01-18T14:17:19.226Z,2092
2019-01-18T14:18:29.422Z,2076
2019-01-18T14:19:39.586Z,2052
2019-01-18T14:20:49.732Z,2040
2019-01-18T14:21:59.927Z,2036
2019-01-18T14:23:09.815Z,2060
2019-01-18T14:24:19.988Z,2100
2019-01-18T14:25:30.125Z,2144
2019-01-18T14:26:40.255Z,2180
2019-01-18T14:27:50.395Z,2180
2019-01-18T14:29:00.542Z,2124
2019-01-18T14:30:10.665Z,2056
2019-01-18T14:31:21.780Z,1936
2019-01-18T14:32:31.924Z,1828
2019-01-18T14:33:42.183Z,1756
2019-01-18T14:34:52.347Z,1724
2019-01-18T14:36:02.483Z,1704
2019-01-18T14:37:12.630Z,1652
2019-01-18T14:38:27.555Z,1660
2019-01-18T14:39:37.336Z,1692
2019-01-18T14:40:47.478Z,1684
2019-01-18T14:41:57.614Z,1648
2019-01-18T14:43:07.808Z,1612
2019-01-18T14:44:17.943Z,1588
2019-01-18T14:45:27.811Z,1572
2019-01-18T14:46:37.953Z,1532
2019-01-18T14:47:48.116Z,1484
2019-01-18T14:48:58.273Z,1420
2019-01-18T14:50:08.399Z,1376
2019-01-18T14:51:18.581Z,1344
2019-01-18T14:52:28.717Z,1324
2019-01-18T14:53:38.601Z,1304
2019-01-18T14:54:48.772Z,1272
2019-01-18T14:55:58.932Z,1244
2019-01-18T14:57:09.281Z,1216
2019-01-18T14:58:19.443Z,1196
2019-01-18T14:59:32.429Z,1176
2019-01-18T15:00:42.556Z,1156
2019-01-18T15:01:52.713Z,1128
2019-01-18T15:03:09.631Z,1096
2019-01-18T15:04:19.829Z,1060
2019-01-18T15:05:29.989Z,1020
2019-01-18T15:06:40.143Z,980
2019-01-18T15:07:50.312Z,944
2019-01-18T15:09:00.483Z,908
2019-01-18T15:10:12.215Z,872
2019-01-18T15:11:22.349Z,836
2019-01-18T15:12:32.491Z,800
2019-01-18T15:13:42.632Z,760
2019-01-18T15:14:52.765Z,728
2019-01-18T15:16:02.924Z,696
2019-01-18T15:17:12.829Z,664
2019-01-18T15:18:22.964Z,628
2019-01-18T15:19:33.154Z,596
2019-01-18T15:20:43.300Z,564
2019-01-18T15:21:53.485Z,528
2019-01-18T15:23:03.638Z,500
2019-01-18T15:24:13.835Z,468
2019-01-18T15:25:24.017Z,432
2019-01-18T15:26:34.172Z,404
2019-01-18T15:27:44.335Z,368
2019-01-18T15:28:54.569Z,340
2019-01-18T15:30:09.323Z,312
2019-01-18T15:31:19.435Z,284
2019-01-18T15:32:29.592Z,264
2019-01-18T15:33:39.826Z,236
2019-01-18T15:34:49.987Z,216
2019-01-18T15:36:00.130Z,192
2019-01-18T15:37:10.303Z,176
2019-01-18T15:38:20.460Z,160
2019-01-18T15:39:30.576Z,144
2019-01-18T15:40:40.741Z,128
2019-01-18T15:41:50.923Z,112
2019-01-18T15:43:01.046Z,100
2019-01-18T15:44:11.211Z,84
2019-01-18T15:45:21.353Z,72
2019-01-18T15:46:31.527Z,64
2019-01-18T15:47:41.890Z,56
2019-01-18T15:48:51.765Z,52
2019-01-18T15:50:01.971Z,44
2019-01-18T15:51:12.306Z,36
2019-01-18T15:52:22.450Z,32
2019-01-18T15:53:32.579Z,28
2019-01-18T15:54:42.726Z,20
2019-01-18T15:55:52.893Z,16
2019-01-18T15:57:03.091Z,16
2019-01-18T15:58:12.845Z,12
2019-01-18T15:59:22.739Z,8
2019-01-18T16:00:32.904Z,8
2019-01-18T16:01:43.051Z,4
2019-01-18T16:02:53.216Z,4
2019-01-18T16:04:03.388Z,4
2019-01-18T16:05:13.876Z,4
2019-01-18T16:06:24.064Z,0
2019-01-18T16:07:34.235Z,4
2019-01-18T16:08:44.371Z,0
2019-01-18T16:09:54.532Z,0
2019-01-18T16:11:04.696Z,4
2019-01-18T16:12:14.887Z,0
2019-01-18T16:13:25.087Z,0
2019-01-18T16:14:35.237Z,0
2019-01-18T16:15:45.433Z,0
2019-01-18T16:16:55.579Z,0
2019-01-18T16:18:05.728Z,0
2019-01-18T16:19:15.877Z,0
2019-01-18T16:20:26.032Z,0
2019-01-18T16:21:36.168Z,0